createdAt,value
2022-11-10T00:02:37.056Z,100406.72
2022-11-10T00:05:23.052Z,100411.03
2022-11-10T00:08:12.304Z,100417.00
2022-11-10T00:10:58.836Z,100418.56
2022-11-10T00:14:06.776Z,100412.69
2022-11-10T00:17:02.184Z,100422.50
2022-11-10T00:19:47.939Z,100415.34
2022-11-10T00:22:35.330Z,100408.06
2022-11-10T00:25:21.064Z,100415.84
2022-11-10T00:28:06.911Z,100417.16
2022-11-10T00:30:52.846Z,100414.53
2022-11-10T00:33:41.238Z,100414.72
2022-11-10T00:36:27.463Z,100402.41
2022-11-10T00:39:13.492Z,100404.06
2022-11-10T00:41:59.545Z,100402.41
2022-11-10T00:44:45.328Z,100397.00
2022-11-10T00:47:31.681Z,100392.69
2022-11-10T00:50:17.913Z,100390.16
2022-11-10T00:53:04.242Z,100390.53
2022-11-10T00:55:50.708Z,100392.88
2022-11-10T00:58:37.050Z,100399.09
2022-11-10T01:01:25.668Z,100402.25
2022-11-10T01:04:11.776Z,100399.19
2022-11-10T01:06:57.666Z,100397.94
2022-11-10T01:09:43.480Z,100407.56
2022-11-10T01:12:31.443Z,100407.31
2022-11-10T01:15:17.636Z,100413.28
2022-11-10T01:18:03.876Z,100417.00
2022-11-10T01:20:53.012Z,100422.56
2022-11-10T01:23:38.948Z,100414.53
2022-11-10T01:26:25.905Z,100413.97
2022-11-10T01:29:11.771Z,100423.53
2022-11-10T01:31:57.733Z,100420.75
2022-11-10T01:34:43.624Z,100430.25
2022-11-10T01:37:29.656Z,100430.25
2022-11-10T01:40:15.659Z,100436.38
2022-11-10T01:43:01.245Z,100435.47
2022-11-10T01:46:07.365Z,100426.81
2022-11-10T01:49:01.184Z,100427.88
2022-11-10T01:52:04.414Z,100426.22
2022-11-10T01:54:51.083Z,100429.69
2022-11-10T01:57:38.012Z,100426.97
2022-11-10T02:00:24.211Z,100431.88
2022-11-10T02:03:51.459Z,100439.63
2022-11-10T02:06:45.321Z,100440.53
2022-11-10T02:09:31.230Z,100451.19
2022-11-10T02:12:36.632Z,100453.88
2022-11-10T02:15:24.159Z,100450.38
2022-11-10T02:18:10.109Z,100445.59
2022-11-10T02:20:55.983Z,100453.81
2022-11-10T02:23:51.195Z,100448.47
2022-11-10T02:27:09.802Z,100450.72
2022-11-10T02:29:55.876Z,100455.69
2022-11-10T02:32:41.782Z,100453.00
2022-11-10T02:35:28.132Z,100462.47
2022-11-10T02:38:14.919Z,100466.44
2022-11-10T02:41:01.044Z,100466.25
2022-11-10T02:43:47.276Z,100471.31
2022-11-10T02:46:32.941Z,100468.69
2022-11-10T02:49:19.012Z,100466.81
2022-11-10T02:52:05.212Z,100471.94
2022-11-10T02:54:51.000Z,100465.72
2022-11-10T02:57:38.031Z,100480.72
2022-11-10T03:00:24.456Z,100479.34
2022-11-10T03:03:10.331Z,100472.31
2022-11-10T03:05:56.192Z,100491.63
2022-11-10T03:08:42.102Z,100486.38
2022-11-10T03:11:31.952Z,100489.81
2022-11-10T03:14:18.482Z,100483.78
2022-11-10T03:17:04.296Z,100485.66
2022-11-10T03:19:51.096Z,100482.13
2022-11-10T03:22:37.132Z,100483.03
2022-11-10T03:25:23.006Z,100489.28
2022-11-10T03:28:09.240Z,100496.47
2022-11-10T03:30:55.208Z,100497.22
2022-11-10T03:33:40.778Z,100502.34
2022-11-10T03:36:26.955Z,100509.28
2022-11-10T03:39:12.751Z,100511.09
2022-11-10T03:41:58.919Z,100514.88
2022-11-10T03:44:44.709Z,100509.47
2022-11-10T03:47:30.582Z,100516.50
2022-11-10T03:50:17.459Z,100519.94
2022-11-10T03:53:03.236Z,100530.59
2022-11-10T03:55:48.847Z,100533.47
2022-11-10T03:58:34.843Z,100538.72
2022-11-10T04:01:20.600Z,100539.63
2022-11-10T04:04:26.335Z,100539.63
2022-11-10T04:07:33.554Z,100543.31
2022-11-10T04:10:19.683Z,100544.34
2022-11-10T04:13:23.898Z,100540.50
2022-11-10T04:16:10.282Z,100546.56
2022-11-10T04:18:56.154Z,100550.97
2022-11-10T04:21:42.427Z,100548.25
2022-11-10T04:24:28.180Z,100548.66
2022-11-10T04:27:13.954Z,100549.56
2022-11-10T04:29:59.526Z,100553.19
2022-11-10T04:32:45.371Z,100560.22
2022-11-10T04:35:31.452Z,100556.06
2022-11-10T04:38:17.760Z,100547.13
2022-11-10T04:41:04.404Z,100555.88
2022-11-10T04:43:50.464Z,100553.66
2022-11-10T04:46:40.166Z,100557.13
2022-11-10T04:49:26.415Z,100553.59
2022-11-10T04:52:12.391Z,100565.19
2022-11-10T04:54:58.263Z,100572.28
2022-11-10T04:57:44.077Z,100571.25
2022-11-10T05:00:30.168Z,100572.22
2022-11-10T05:03:16.522Z,100569.38
2022-11-10T05:06:02.127Z,100574.81
2022-11-10T05:08:48.162Z,100576.25
2022-11-10T05:11:33.618Z,100583.28
2022-11-10T05:14:19.406Z,100585.09
2022-11-10T05:17:05.248Z,100579.97
2022-11-10T05:19:51.641Z,100584.72
2022-11-10T05:22:37.483Z,100594.13
2022-11-10T05:25:23.181Z,100596.38
2022-11-10T05:28:12.923Z,100596.59
2022-11-10T05:30:58.586Z,100596.59
2022-11-10T05:33:44.500Z,100604.34
2022-11-10T05:36:30.604Z,100608.06
2022-11-10T05:39:16.459Z,100618.44
2022-11-10T05:42:02.128Z,100624.25
2022-11-10T05:44:48.010Z,100634.06
2022-11-10T05:47:37.721Z,100641.91
2022-11-10T05:50:24.836Z,100645.28
2022-11-10T05:53:11.694Z,100646.94
2022-11-10T05:55:57.689Z,100650.34
2022-11-10T05:58:43.493Z,100652.06
2022-11-10T06:01:29.276Z,100651.16
2022-11-10T06:04:15.063Z,100652.16
2022-11-10T06:07:00.861Z,100656.38
2022-11-10T06:09:48.373Z,100662.84
2022-11-10T06:12:33.964Z,100662.94
2022-11-10T06:15:20.539Z,100665.84
2022-11-10T06:18:06.817Z,100670.25
2022-11-10T06:20:52.565Z,100675.56
2022-11-10T06:23:38.409Z,100675.47
2022-11-10T06:26:24.310Z,100674.47
2022-11-10T06:29:10.136Z,100672.13
2022-11-10T06:31:56.176Z,100675.56
2022-11-10T06:34:42.395Z,100683.34
2022-11-10T06:37:28.076Z,100693.63
2022-11-10T06:40:14.212Z,100683.97
2022-11-10T06:43:01.602Z,100697.25
2022-11-10T06:45:47.320Z,100700.03
2022-11-10T06:48:33.263Z,100702.03
2022-11-10T06:51:18.968Z,100708.28
2022-11-10T06:54:05.164Z,100714.66
2022-11-10T06:56:50.867Z,100708.44
2022-11-10T06:59:36.726Z,100715.47
2022-11-10T07:02:22.648Z,100718.09
2022-11-10T07:05:08.922Z,100722.34
2022-11-10T07:07:54.826Z,100725.50
2022-11-10T07:10:40.636Z,100728.75
2022-11-10T07:13:26.546Z,100728.84
2022-11-10T07:16:12.790Z,100729.22
2022-11-10T07:18:58.557Z,100736.63
2022-11-10T07:21:44.243Z,100733.34
2022-11-10T07:24:30.531Z,100745.63
2022-11-10T07:27:16.617Z,100745.63
2022-11-10T07:30:03.374Z,100744.94
2022-11-10T07:33:18.164Z,100750.69
2022-11-10T07:36:05.135Z,100757.56
2022-11-10T07:38:50.824Z,100758.19
2022-11-10T07:41:36.879Z,100768.47
2022-11-10T07:44:22.577Z,100774.00
2022-11-10T07:47:08.615Z,100781.50
2022-11-10T07:49:54.522Z,100772.22
2022-11-10T07:52:40.827Z,100785.97
2022-11-10T07:55:26.581Z,100800.94
2022-11-10T07:58:16.778Z,100800.50
2022-11-10T08:01:02.764Z,100809.81
2022-11-10T08:03:48.666Z,100817.41
2022-11-10T08:06:36.510Z,100816.50
2022-11-10T08:09:22.760Z,100830.88
2022-11-10T08:12:08.796Z,100826.63
2022-11-10T08:14:54.650Z,100828.78
2022-11-10T08:17:40.539Z,100835.28
2022-11-10T08:20:26.761Z,100828.16
2022-11-10T08:23:12.840Z,100834.56
2022-11-10T08:26:01.181Z,100826.78
2022-11-10T08:28:46.898Z,100832.56
2022-11-10T08:31:34.103Z,100834.03
2022-11-10T08:34:19.965Z,100844.09
2022-11-10T08:37:05.687Z,100842.03
2022-11-10T08:39:51.701Z,100844.84
2022-11-10T08:42:37.418Z,100835.78
2022-11-10T08:45:23.352Z,100836.09
2022-11-10T08:48:19.043Z,100832.66
2022-11-10T08:51:05.284Z,100834.22
2022-11-10T08:53:51.475Z,100840.34
2022-11-10T08:56:37.329Z,100846.13
2022-11-10T08:59:23.185Z,100849.53
2022-11-10T09:02:10.558Z,100848.56
2022-11-10T09:04:56.570Z,100848.34
2022-11-10T09:07:50.458Z,100850.97
2022-11-10T09:10:40.376Z,100857.47
2022-11-10T09:13:30.273Z,100862.88
2022-11-10T09:16:16.751Z,100862.13
2022-11-10T09:19:02.586Z,100870.06
2022-11-10T09:21:48.368Z,100876.53
2022-11-10T09:24:34.297Z,100875.00
2022-11-10T09:27:20.502Z,100886.81
2022-11-10T09:30:12.924Z,100888.38
2022-11-10T09:33:01.945Z,100888.69
2022-11-10T09:35:47.923Z,100891.41
2022-11-10T09:38:35.092Z,100890.50
2022-11-10T09:41:21.091Z,100889.69
2022-11-10T09:44:27.456Z,100892.50
2022-11-10T09:47:55.713Z,100899.25
2022-11-10T09:51:02.069Z,100900.47
2022-11-10T09:54:25.753Z,100901.94
2022-11-10T09:57:19.098Z,100899.97
2022-11-10T10:00:05.647Z,100901.72
2022-11-10T10:03:01.043Z,100911.22
2022-11-10T10:06:11.447Z,100910.66
2022-11-10T10:09:25.671Z,100915.41
2022-11-10T10:12:51.719Z,100917.72
2022-11-10T10:16:06.440Z,100915.25
2022-11-10T10:19:21.066Z,100920.44
2022-11-10T10:23:11.297Z,100920.06
2022-11-10T10:25:57.411Z,100919.28
2022-11-10T10:28:50.045Z,100922.22
2022-11-10T10:31:51.472Z,100912.88
2022-11-10T10:34:37.716Z,100917.81
2022-11-10T10:37:53.971Z,100927.72
2022-11-10T10:40:40.838Z,100919.75
2022-11-10T10:43:26.800Z,100917.16
2022-11-10T10:46:20.210Z,100926.75
2022-11-10T10:49:30.445Z,100923.44
2022-11-10T10:52:24.730Z,100929.47
2022-11-10T10:55:14.072Z,100931.25
2022-11-10T10:58:25.739Z,100925.75
2022-11-10T11:01:18.112Z,100925.03
2022-11-10T11:04:37.485Z,100926.25
2022-11-10T11:07:25.187Z,100924.91
2022-11-10T11:10:27.251Z,100925.97
2022-11-10T11:13:27.291Z,100916.41
2022-11-10T11:16:13.418Z,100920.25
2022-11-10T11:18:59.312Z,100925.84
2022-11-10T11:22:06.905Z,100931.16
2022-11-10T11:25:37.331Z,100929.19
2022-11-10T11:28:53.752Z,100924.84
2022-11-10T11:32:37.734Z,100938.16
2022-11-10T11:35:37.978Z,100917.84
2022-11-10T11:38:53.979Z,100929.56
2022-11-10T11:42:12.114Z,100913.91
2022-11-10T11:45:16.748Z,100920.50
2022-11-10T11:48:34.986Z,100924.53
2022-11-10T11:52:08.569Z,100928.94
2022-11-10T11:55:34.712Z,100935.84
2022-11-10T11:58:28.878Z,100945.41
2022-11-10T12:01:48.100Z,100948.00
2022-11-10T12:05:03.312Z,100954.19
2022-11-10T12:08:41.402Z,100957.88
2022-11-10T12:12:02.827Z,100951.19
2022-11-10T12:15:16.857Z,100955.44
2022-11-10T12:19:10.949Z,100951.94
2022-11-10T12:22:24.391Z,100951.38
2022-11-10T12:25:54.348Z,100949.00
2022-11-10T12:28:53.407Z,100954.97
2022-11-10T12:31:43.827Z,100952.44
2022-11-10T12:34:53.679Z,100967.56
2022-11-10T12:37:53.665Z,100967.88
2022-11-10T12:40:47.410Z,100979.91
2022-11-10T12:43:55.311Z,100969.72
2022-11-10T12:46:50.926Z,100972.75
2022-11-10T12:50:01.941Z,100985.50
2022-11-10T12:53:26.704Z,100990.09
2022-11-10T12:56:37.159Z,100992.41
2022-11-10T12:59:37.913Z,100993.50
2022-11-10T13:02:42.561Z,100999.75
2022-11-10T13:05:41.979Z,100992.75
2022-11-10T13:08:43.196Z,101004.75
2022-11-10T13:11:37.119Z,100993.81
2022-11-10T13:14:29.930Z,100999.41
2022-11-10T13:17:28.377Z,101002.78
2022-11-10T13:20:39.025Z,101004.13
2022-11-10T13:23:30.149Z,101002.78
2022-11-10T13:26:40.880Z,101010.00
2022-11-10T13:29:42.673Z,101006.69
2022-11-10T13:32:33.093Z,101011.72
2022-11-10T13:35:30.913Z,101010.16
2022-11-10T13:38:43.557Z,101007.34
2022-11-10T13:41:34.641Z,101009.78
2022-11-10T13:44:39.885Z,101008.97
2022-11-10T13:47:58.575Z,101019.34
2022-11-10T13:51:13.387Z,101018.03
2022-11-10T13:54:59.114Z,101021.56
2022-11-10T13:58:04.370Z,101024.59
2022-11-10T14:01:17.098Z,101030.28
2022-11-10T14:04:04.804Z,101037.91
2022-11-10T14:06:55.057Z,101036.72
2022-11-10T14:09:47.753Z,101043.53
2022-11-10T14:12:48.303Z,101050.31
2022-11-10T14:15:49.010Z,101061.94
2022-11-10T14:18:48.250Z,101062.69
2022-11-10T14:21:55.358Z,101074.31
2022-11-10T14:25:25.007Z,101069.13
2022-11-10T14:28:33.307Z,101077.88
2022-11-10T14:31:28.557Z,101086.78
2022-11-10T14:34:18.674Z,101083.47
2022-11-10T14:37:06.603Z,101088.16
2022-11-10T14:39:59.691Z,101089.56
2022-11-10T14:42:47.605Z,101094.19
2022-11-10T14:45:33.467Z,101099.47
2022-11-10T14:48:25.683Z,101106.81
2022-11-10T14:51:19.142Z,101116.38
2022-11-10T14:54:07.148Z,101128.38
2022-11-10T14:56:55.207Z,101135.13
2022-11-10T14:59:41.363Z,101133.97
2022-11-10T15:02:27.306Z,101136.44
2022-11-10T15:05:15.677Z,101151.56
2022-11-10T15:08:03.729Z,101159.28
2022-11-10T15:10:53.191Z,101165.47
2022-11-10T15:13:39.910Z,101167.69
2022-11-10T15:16:38.503Z,101177.69
2022-11-10T15:19:39.247Z,101190.78
2022-11-10T15:22:34.571Z,101194.94
2022-11-10T15:25:25.906Z,101194.94
2022-11-10T15:28:38.028Z,101202.91
2022-11-10T15:31:27.467Z,101200.47
2022-11-10T15:34:41.726Z,101188.06
2022-11-10T15:37:32.053Z,101185.25
2022-11-10T15:40:42.720Z,101189.34
2022-11-10T15:43:28.527Z,101189.25
2022-11-10T15:46:24.664Z,101185.56
2022-11-10T15:49:35.339Z,101194.22
2022-11-10T15:52:23.455Z,101196.50
2022-11-10T15:55:41.606Z,101198.78
2022-11-10T15:58:28.013Z,101212.91
2022-11-10T16:01:16.057Z,101216.88
2022-11-10T16:04:02.376Z,101229.47
2022-11-10T16:06:48.166Z,101229.38
2022-11-10T16:09:34.072Z,101227.41
2022-11-10T16:12:22.236Z,101234.28
2022-11-10T16:15:19.362Z,101242.69
2022-11-10T16:18:20.070Z,101246.19
2022-11-10T16:21:06.704Z,101258.09
2022-11-10T16:23:54.308Z,101261.97
2022-11-10T16:26:40.148Z,101274.38
2022-11-10T16:29:26.066Z,101291.13
2022-11-10T16:32:12.310Z,101291.22
2022-11-10T16:34:58.140Z,101288.59
2022-11-10T16:37:44.013Z,101293.84
2022-11-10T16:40:29.833Z,101296.28
2022-11-10T16:43:19.027Z,101299.50
2022-11-10T16:46:17.879Z,101302.94
2022-11-10T16:49:07.252Z,101309.03
2022-11-10T16:51:53.225Z,101308.41
2022-11-10T16:54:38.880Z,101316.28
2022-11-10T16:57:25.111Z,101319.91
2022-11-10T17:00:11.886Z,101337.28
2022-11-10T17:03:06.620Z,101327.78
2022-11-10T17:05:52.364Z,101342.44
2022-11-10T17:08:38.043Z,101342.44
2022-11-10T17:11:24.092Z,101345.25
2022-11-10T17:14:12.913Z,101350.59
2022-11-10T17:16:59.047Z,101357.25
2022-11-10T17:19:45.498Z,101359.38
2022-11-10T17:22:36.445Z,101363.69
2022-11-10T17:25:30.566Z,101369.88
2022-11-10T17:28:18.843Z,101364.50
2022-11-10T17:31:04.951Z,101369.13
2022-11-10T17:33:50.947Z,101369.44
2022-11-10T17:36:37.155Z,101371.97
2022-11-10T17:39:23.023Z,101383.16
2022-11-10T17:42:13.775Z,101387.56
2022-11-10T17:44:59.543Z,101391.47
2022-11-10T17:47:46.517Z,101392.50
2022-11-10T17:50:33.530Z,101407.81
2022-11-10T17:53:26.192Z,101406.75
2022-11-10T17:56:12.577Z,101414.38
2022-11-10T17:58:58.547Z,101419.19
2022-11-10T18:01:44.575Z,101422.66
2022-11-10T18:04:30.617Z,101422.31
2022-11-10T18:07:16.663Z,101424.63
2022-11-10T18:10:02.792Z,101424.19
2022-11-10T18:12:48.348Z,101440.38
2022-11-10T18:15:34.652Z,101432.28
2022-11-10T18:18:20.573Z,101437.09
2022-11-10T18:21:07.084Z,101447.34
2022-11-10T18:23:52.916Z,101446.53
2022-11-10T18:26:39.147Z,101452.78
2022-11-10T18:29:25.031Z,101460.75
2022-11-10T18:32:10.894Z,101462.56
2022-11-10T18:34:56.555Z,101468.25
2022-11-10T18:37:42.420Z,101473.50
2022-11-10T18:40:28.453Z,101478.84
2022-11-10T18:43:14.152Z,101482.50
2022-11-10T18:46:00.124Z,101477.59
2022-11-10T18:48:47.014Z,101485.56
2022-11-10T18:51:33.624Z,101487.16
2022-11-10T18:54:19.619Z,101487.72
2022-11-10T18:57:05.503Z,101486.69
2022-11-10T18:59:51.579Z,101497.28
2022-11-10T19:02:37.515Z,101499.88
2022-11-10T19:05:23.513Z,101517.88
2022-11-10T19:08:09.296Z,101518.19
2022-11-10T19:10:56.682Z,101526.94
2022-11-10T19:13:43.488Z,101524.88
2022-11-10T19:16:30.211Z,101523.63
2022-11-10T19:19:16.118Z,101525.19
2022-11-10T19:22:02.117Z,101540.66
2022-11-10T19:25:07.037Z,101542.78
2022-11-10T19:27:53.712Z,101545.97
2022-11-10T19:30:40.058Z,101548.34
2022-11-10T19:33:28.649Z,101554.66
2022-11-10T19:36:22.441Z,101556.28
2022-11-10T19:39:10.154Z,101554.31
2022-11-10T19:41:56.079Z,101560.78
2022-11-10T19:44:41.741Z,101565.41
2022-11-10T19:47:29.965Z,101558.44
2022-11-10T19:50:16.209Z,101566.13
2022-11-10T19:53:05.167Z,101560.53
2022-11-10T19:55:51.499Z,101572.56
2022-11-10T19:58:39.021Z,101578.88
2022-11-10T20:01:26.303Z,101582.84
2022-11-10T20:04:13.858Z,101581.00
2022-11-10T20:07:18.313Z,101589.38
2022-11-10T20:10:04.969Z,101594.63
2022-11-10T20:12:50.512Z,101594.25
2022-11-10T20:15:43.652Z,101593.88
2022-11-10T20:18:30.556Z,101599.91
2022-11-10T20:21:22.300Z,101598.09
2022-11-10T20:24:09.345Z,101606.50
2022-11-10T20:26:55.256Z,101609.38
2022-11-10T20:29:43.190Z,101617.94
2022-11-10T20:32:29.388Z,101614.19
2022-11-10T20:35:16.520Z,101619.00
2022-11-10T20:38:02.287Z,101616.94
2022-11-10T20:40:48.398Z,101627.66
2022-11-10T20:43:37.247Z,101622.97
2022-11-10T20:49:29.659Z,101639.19
2022-11-10T20:52:16.563Z,101647.78
2022-11-10T20:55:05.460Z,101653.00
2022-11-10T20:57:52.068Z,101661.59
2022-11-10T21:00:41.441Z,101651.44
2022-11-10T21:03:27.176Z,101645.97
2022-11-10T21:06:13.060Z,101650.28
2022-11-10T21:08:59.149Z,101646.75
2022-11-10T21:12:05.052Z,101656.56
2022-11-10T21:14:50.940Z,101655.63
2022-11-10T21:17:41.514Z,101638.66
2022-11-10T21:20:29.509Z,101642.34
2022-11-10T21:23:15.496Z,101632.53
2022-11-10T21:26:01.753Z,101636.31
2022-11-10T21:28:47.620Z,101635.81
2022-11-10T21:31:33.802Z,101640.78
2022-11-10T21:34:19.415Z,101642.69
2022-11-10T21:37:05.275Z,101648.59
2022-11-10T21:39:50.955Z,101655.38
2022-11-10T21:42:36.769Z,101650.16
2022-11-10T21:45:22.797Z,101655.00
2022-11-10T21:48:09.063Z,101661.50
2022-11-10T21:51:00.906Z,101655.38
2022-11-10T21:53:48.424Z,101656.19
2022-11-10T21:56:34.380Z,101655.13
2022-11-10T21:59:19.964Z,101656.41
2022-11-10T22:02:06.394Z,101653.81
2022-11-10T22:04:52.151Z,101658.63
2022-11-10T22:07:38.910Z,101655.63
2022-11-10T22:10:43.179Z,101659.97
2022-11-10T22:13:47.591Z,101662.16
2022-11-10T22:17:12.419Z,101659.97
2022-11-10T22:19:58.408Z,101659.03
2022-11-10T22:22:44.217Z,101667.38
2022-11-10T22:25:29.979Z,101668.16
2022-11-10T22:28:15.989Z,101670.00
2022-11-10T22:31:04.147Z,101667.66
2022-11-10T22:33:50.188Z,101675.22
2022-11-10T22:36:35.986Z,101679.88
2022-11-10T22:39:21.924Z,101673.91
2022-11-10T22:42:30.944Z,101668.81
2022-11-10T22:45:16.925Z,101676.53
2022-11-10T22:48:21.090Z,101670.78
2022-11-10T22:51:07.233Z,101677.81
2022-11-10T22:53:53.099Z,101669.47
2022-11-10T22:56:40.203Z,101667.91
2022-11-10T22:59:25.974Z,101673.63
2022-11-10T23:02:12.119Z,101673.63
2022-11-10T23:04:58.110Z,101666.59
2022-11-10T23:07:43.997Z,101667.13
2022-11-10T23:10:29.876Z,101656.56
2022-11-10T23:13:15.805Z,101665.44
2022-11-10T23:16:11.127Z,101666.06
2022-11-10T23:18:58.356Z,101660.31
2022-11-10T23:21:44.115Z,101659.69
2022-11-10T23:24:31.959Z,101655.63
2022-11-10T23:27:17.925Z,101657.09
2022-11-10T23:30:04.366Z,101659.69
2022-11-10T23:32:50.194Z,101659.03
2022-11-10T23:35:36.296Z,101670.47
2022-11-10T23:38:22.229Z,101671.81
2022-11-10T23:41:14.659Z,101674.69
2022-11-10T23:44:00.784Z,101663.59
2022-11-10T23:46:47.675Z,101676.22
2022-11-10T23:49:33.606Z,101679.09
2022-11-10T23:52:19.870Z,101679.09
2022-11-10T23:55:06.422Z,101683.66
2022-11-10T23:57:52.383Z,101681.16
